createdAt,value
2019-02-18T00:00:26.603Z,99616.54
2019-02-18T00:02:54.734Z,99601.27
2019-02-18T00:05:23.344Z,99626.94
2019-02-18T00:07:51.477Z,99616.67
2019-02-18T00:10:19.292Z,99603.19
2019-02-18T00:12:47.280Z,99620.59
2019-02-18T00:15:15.452Z,99617.34
2019-02-18T00:17:43.856Z,99623.73
2019-02-18T00:20:12.025Z,99555.28
2019-02-18T00:22:40.293Z,99610.13
2019-02-18T00:25:08.054Z,99594.44
2019-02-18T00:27:35.948Z,99566.41
2019-02-18T00:30:04.323Z,99607.17
2019-02-18T00:32:32.113Z,99598.63
2019-02-18T00:34:59.851Z,99609.94
2019-02-18T00:37:28.241Z,99606.73
2019-02-18T00:39:56.094Z,99601.75
2019-02-18T00:42:24.123Z,99607.06
2019-02-18T00:44:52.072Z,99606.27
2019-02-18T00:47:20.157Z,99588.37
2019-02-18T00:49:48.148Z,99603.81
2019-02-18T00:52:16.314Z,99567.52
2019-02-18T00:54:44.356Z,99613.45
2019-02-18T00:57:12.457Z,99613.91
2019-02-18T00:59:40.979Z,99613.78
2019-02-18T01:02:09.199Z,99612.33
2019-02-18T01:04:37.288Z,99613.83
2019-02-18T01:07:05.870Z,99607.85
2019-02-18T01:09:34.000Z,99586.25
2019-02-18T01:12:02.219Z,99615.42
2019-02-18T01:14:30.581Z,99586.79
2019-02-18T01:16:58.650Z,99609.97
2019-02-18T01:19:26.751Z,99608.43
2019-02-18T01:21:55.444Z,99607.28
2019-02-18T01:24:23.684Z,99609.44
2019-02-18T01:26:51.764Z,99603.94
2019-02-18T01:29:20.138Z,99602.37
2019-02-18T01:31:48.127Z,99600.45
2019-02-18T01:34:16.284Z,99600.94
2019-02-18T01:36:44.416Z,99603.77
2019-02-18T01:39:12.272Z,99601.72
2019-02-18T01:41:40.244Z,99587.27
2019-02-18T01:44:08.795Z,99553.47
2019-02-18T01:46:36.600Z,99584.91
2019-02-18T01:49:04.565Z,99563.12
2019-02-18T01:51:33.056Z,99570.20
2019-02-18T01:54:01.139Z,99582.83
2019-02-18T01:56:29.023Z,99562.20
2019-02-18T01:58:57.479Z,99581.81
2019-02-18T02:01:25.561Z,99587.55
2019-02-18T02:03:53.642Z,99572.70
2019-02-18T02:06:21.903Z,99575.47
2019-02-18T02:08:49.982Z,99580.86
2019-02-18T02:11:18.727Z,99573.36
2019-02-18T02:13:47.735Z,99576.58
2019-02-18T02:16:16.442Z,99573.51
2019-02-18T02:18:44.473Z,99561.80
2019-02-18T02:21:13.195Z,99559.47
2019-02-18T02:23:41.506Z,99562.66
2019-02-18T02:26:09.518Z,99562.38
2019-02-18T02:28:37.870Z,99552.63
2019-02-18T02:31:05.908Z,99591.56
2019-02-18T02:33:34.153Z,99551.99
2019-02-18T02:36:02.650Z,99548.31
2019-02-18T02:38:30.833Z,99541.09
2019-02-18T02:40:58.674Z,99546.84
2019-02-18T02:43:27.087Z,99551.20
2019-02-18T02:45:55.273Z,99545.75
2019-02-18T02:48:23.189Z,99550.90
2019-02-18T02:50:51.540Z,99541.09
2019-02-18T02:53:19.589Z,99542.83
2019-02-18T02:55:48.129Z,99542.13
2019-02-18T02:58:16.746Z,99545.75
2019-02-18T03:00:45.138Z,99534.13
2019-02-18T03:03:13.534Z,99541.59
2019-02-18T03:05:41.542Z,99533.62
2019-02-18T03:08:19.858Z,99533.88
2019-02-18T03:10:38.519Z,99531.16
2019-02-18T03:13:06.576Z,99532.48
2019-02-18T03:15:34.700Z,99523.02
2019-02-18T03:18:03.034Z,99521.50
2019-02-18T03:20:30.998Z,99519.12
2019-02-18T03:22:59.227Z,99521.81
2019-02-18T03:25:28.413Z,99527.28
2019-02-18T03:28:12.508Z,99525.66
2019-02-18T03:30:45.554Z,99505.16
2019-02-18T03:33:16.144Z,99529.97
2019-02-18T03:35:44.127Z,99533.39
2019-02-18T03:38:12.387Z,99512.89
2019-02-18T03:40:40.243Z,99507.52
2019-02-18T03:43:08.308Z,99525.05
2019-02-18T03:45:36.218Z,99533.72
2019-02-18T03:48:04.299Z,99527.88
2019-02-18T03:50:32.620Z,99529.91
2019-02-18T03:53:00.431Z,99537.03
2019-02-18T03:55:28.718Z,99490.00
2019-02-18T03:57:57.148Z,99530.50
2019-02-18T04:00:25.951Z,99534.48
2019-02-18T04:02:54.139Z,99569.42
2019-02-18T04:05:22.158Z,99520.00
2019-02-18T04:07:49.980Z,99539.66
2019-02-18T04:10:18.087Z,99441.47
2019-02-18T04:12:46.477Z,99502.73
2019-02-18T04:15:14.602Z,99537.77
2019-02-18T04:17:43.970Z,99601.86
2019-02-18T04:20:12.165Z,99512.46
2019-02-18T04:22:40.283Z,99540.16
2019-02-18T04:25:08.263Z,99517.01
2019-02-18T04:27:36.447Z,99539.41
2019-02-18T04:30:04.715Z,99534.31
2019-02-18T04:32:32.668Z,99536.26
2019-02-18T04:35:00.864Z,99493.62
2019-02-18T04:37:28.629Z,99530.75
2019-02-18T04:39:56.839Z,99535.03
2019-02-18T04:42:25.106Z,99531.88
2019-02-18T04:44:53.171Z,99537.16
2019-02-18T04:47:20.913Z,99516.36
2019-02-18T04:49:49.049Z,99537.02
2019-02-18T04:52:17.061Z,99540.39
2019-02-18T04:54:45.181Z,99534.75
2019-02-18T04:57:13.710Z,99536.94
2019-02-18T04:59:41.779Z,99534.43
2019-02-18T05:02:09.553Z,99535.66
2019-02-18T05:04:38.232Z,99535.29
2019-02-18T05:07:06.549Z,99541.58
2019-02-18T05:09:34.786Z,99544.34
2019-02-18T05:12:03.376Z,99540.24
2019-02-18T05:14:31.394Z,99535.59
2019-02-18T05:16:59.344Z,99518.69
2019-02-18T05:19:28.378Z,99518.48
2019-02-18T05:21:57.507Z,99543.26
2019-02-18T05:24:26.664Z,99537.84
2019-02-18T05:26:55.864Z,99516.00
2019-02-18T05:29:24.302Z,99539.10
2019-02-18T05:31:52.205Z,99524.45
2019-02-18T05:34:20.022Z,99501.45
2019-02-18T05:36:48.017Z,99487.00
2019-02-18T05:39:18.348Z,99533.97
2019-02-18T05:41:44.677Z,99536.54
2019-02-18T05:44:12.721Z,99349.62
2019-02-18T05:46:40.912Z,99535.00
2019-02-18T05:49:09.711Z,99534.81
2019-02-18T05:51:38.317Z,99515.18
2019-02-18T05:54:06.700Z,99533.28
2019-02-18T05:56:35.110Z,99530.01
2019-02-18T05:59:03.412Z,99532.38
2019-02-18T06:01:31.655Z,99538.45
2019-02-18T06:04:00.258Z,99533.41
2019-02-18T06:06:30.151Z,99538.30
2019-02-18T06:08:58.261Z,99531.65
2019-02-18T06:11:26.893Z,99468.63
2019-02-18T06:13:56.521Z,99531.19
2019-02-18T06:16:24.549Z,99529.80
2019-02-18T06:18:52.934Z,99529.64
2019-02-18T06:21:20.969Z,99396.20
2019-02-18T06:23:48.744Z,99535.54
2019-02-18T06:26:16.864Z,99533.79
2019-02-18T06:28:44.818Z,99534.20
2019-02-18T06:31:12.825Z,99540.67
2019-02-18T06:33:40.917Z,99539.32
2019-02-18T06:36:11.614Z,99462.14
2019-02-18T06:38:42.634Z,99500.69
2019-02-18T06:41:12.545Z,99552.13
2019-02-18T06:43:40.638Z,99553.73
2019-02-18T06:46:13.064Z,99495.73
2019-02-18T06:48:47.350Z,99551.56
2019-02-18T06:51:17.055Z,99550.76
2019-02-18T06:53:43.354Z,99390.72
2019-02-18T06:56:11.649Z,99555.03
2019-02-18T06:58:45.972Z,99561.89
2019-02-18T07:01:35.088Z,99560.34
2019-02-18T07:04:13.476Z,99568.98
2019-02-18T07:07:21.617Z,99567.64
2019-02-18T07:09:53.969Z,99569.02
2019-02-18T07:12:26.418Z,99565.30
2019-02-18T07:14:54.229Z,99521.04
2019-02-18T07:17:22.440Z,99567.37
2019-02-18T07:19:50.404Z,99569.52
2019-02-18T07:22:18.312Z,99448.33
2019-02-18T07:24:46.471Z,99606.66
2019-02-18T07:27:14.745Z,99570.81
2019-02-18T07:29:42.630Z,99568.41
2019-02-18T07:32:10.978Z,99568.58
2019-02-18T07:34:38.931Z,99549.30
2019-02-18T07:37:06.724Z,99564.59
2019-02-18T07:39:35.194Z,99568.28
2019-02-18T07:42:03.122Z,99510.23
2019-02-18T07:44:31.279Z,99568.00
2019-02-18T07:46:59.042Z,99566.91
2019-02-18T07:49:26.835Z,99566.73
2019-02-18T07:51:54.958Z,99561.27
2019-02-18T07:54:22.701Z,99547.70
2019-02-18T07:56:50.500Z,99570.84
2019-02-18T07:59:19.164Z,99569.44
2019-02-18T08:01:47.310Z,99571.72
2019-02-18T08:04:15.414Z,99566.56
2019-02-18T08:06:43.684Z,99570.22
2019-02-18T08:09:11.934Z,99568.44
2019-02-18T08:11:40.142Z,99566.19
2019-02-18T08:14:07.944Z,99557.44
2019-02-18T08:16:35.884Z,99552.97
2019-02-18T08:19:04.532Z,99531.17
2019-02-18T08:21:32.355Z,99555.05
2019-02-18T08:24:00.983Z,99557.00
2019-02-18T08:26:29.208Z,99552.92
2019-02-18T08:28:57.000Z,99555.71
2019-02-18T08:31:25.323Z,99554.84
2019-02-18T08:33:53.270Z,99551.60
2019-02-18T08:36:21.001Z,99547.59
2019-02-18T08:38:49.006Z,99522.43
2019-02-18T08:41:16.988Z,99545.68
2019-02-18T08:43:45.283Z,99534.92
2019-02-18T08:46:13.205Z,99546.88
2019-02-18T08:48:40.966Z,99540.52
2019-02-18T08:51:09.260Z,99463.09
2019-02-18T08:53:37.003Z,99536.75
2019-02-18T08:56:04.891Z,99534.86
2019-02-18T08:58:32.613Z,99535.19
2019-02-18T09:01:02.859Z,99533.09
2019-02-18T09:03:28.632Z,99531.75
2019-02-18T09:05:56.561Z,99533.52
2019-02-18T09:08:24.332Z,99534.52
2019-02-18T09:10:52.116Z,99535.78
2019-02-18T09:13:19.817Z,99529.09
2019-02-18T09:15:47.898Z,99528.45
2019-02-18T09:18:15.628Z,99537.70
2019-02-18T09:20:43.386Z,99530.87
2019-02-18T09:23:18.632Z,99523.58
2019-02-18T09:25:48.768Z,99529.52
2019-02-18T09:28:16.970Z,99526.83
2019-02-18T09:30:47.100Z,99525.58
2019-02-18T09:33:14.813Z,99523.98
2019-02-18T09:35:43.136Z,99521.11
2019-02-18T09:38:11.086Z,99513.70
2019-02-18T09:40:45.972Z,99517.41
2019-02-18T09:43:06.670Z,99510.88
2019-02-18T09:45:34.428Z,99515.59
2019-02-18T09:48:02.685Z,99511.66
2019-02-18T09:50:30.901Z,99472.91
2019-02-18T09:52:58.648Z,99474.38
2019-02-18T09:55:26.917Z,99506.70
2019-02-18T09:57:55.046Z,99505.98
2019-02-18T10:00:23.100Z,99504.98
2019-02-18T10:02:50.992Z,99507.86
2019-02-18T10:05:19.046Z,99504.52
2019-02-18T10:07:47.645Z,99500.33
2019-02-18T10:10:15.718Z,99441.30
2019-02-18T10:12:45.171Z,99446.22
2019-02-18T10:15:13.009Z,99507.27
2019-02-18T10:17:41.012Z,99507.25
2019-02-18T10:20:09.549Z,99510.78
2019-02-18T10:22:37.877Z,99508.89
2019-02-18T10:25:06.717Z,99505.59
2019-02-18T10:27:34.631Z,99504.23
2019-02-18T10:30:03.450Z,99511.70
2019-02-18T10:32:31.737Z,99495.06
2019-02-18T10:34:59.856Z,99493.08
2019-02-18T10:37:27.848Z,99479.87
2019-02-18T10:39:56.429Z,99497.18
2019-02-18T10:42:24.641Z,99461.72
2019-02-18T10:44:52.469Z,99490.27
2019-02-18T10:47:20.507Z,99498.38
2019-02-18T10:49:48.409Z,99495.50
2019-02-18T10:52:16.602Z,99493.34
2019-02-18T10:54:44.668Z,99310.33
2019-02-18T10:57:12.895Z,99490.13
2019-02-18T10:59:41.298Z,99486.33
2019-02-18T11:02:09.082Z,99485.38
2019-02-18T11:04:36.874Z,99481.94
2019-02-18T11:07:05.191Z,99477.73
2019-02-18T11:09:35.537Z,99470.45
2019-02-18T11:12:04.559Z,99460.02
2019-02-18T11:14:32.433Z,99466.14
2019-02-18T11:17:00.272Z,99462.56
2019-02-18T11:19:31.605Z,99453.55
2019-02-18T11:21:59.761Z,99449.13
2019-02-18T11:24:27.837Z,99475.27
2019-02-18T11:26:55.780Z,99438.93
2019-02-18T11:29:23.605Z,99435.67
2019-02-18T11:31:51.559Z,99402.33
2019-02-18T11:34:19.572Z,99432.18
2019-02-18T11:36:47.818Z,99431.64
2019-02-18T11:39:15.552Z,99413.53
2019-02-18T11:41:44.434Z,99425.12
2019-02-18T11:44:12.613Z,99421.26
2019-02-18T11:46:40.365Z,99388.87
2019-02-18T11:49:08.354Z,99418.43
2019-02-18T11:51:36.192Z,99410.23
2019-02-18T11:54:04.552Z,99348.12
2019-02-18T11:56:33.109Z,99406.80
2019-02-18T11:59:01.251Z,99399.83
2019-02-18T12:01:29.552Z,99451.00
2019-02-18T12:03:57.525Z,99397.27
2019-02-18T12:06:25.692Z,99389.09
2019-02-18T12:08:54.176Z,99399.54
2019-02-18T12:11:22.381Z,99386.69
2019-02-18T12:13:51.251Z,99381.84
2019-02-18T12:16:19.473Z,99375.35
2019-02-18T12:18:47.369Z,99377.03
2019-02-18T12:21:17.389Z,99376.39
2019-02-18T12:23:45.554Z,99369.88
2019-02-18T12:26:13.518Z,99371.17
2019-02-18T12:28:41.905Z,99374.45
2019-02-18T12:31:10.971Z,99361.92
2019-02-18T12:33:39.002Z,99353.72
2019-02-18T12:36:12.258Z,99348.68
2019-02-18T12:38:41.145Z,99339.38
2019-02-18T12:41:08.757Z,99333.82
2019-02-18T12:43:36.845Z,99325.42
2019-02-18T12:46:15.332Z,99323.88
2019-02-18T12:48:35.283Z,99245.69
2019-02-18T12:51:01.191Z,99316.38
2019-02-18T12:53:28.953Z,99299.53
2019-02-18T12:55:56.982Z,99308.19
2019-02-18T12:58:24.960Z,99127.25
2019-02-18T13:00:53.102Z,99302.86
2019-02-18T13:03:21.180Z,99301.55
2019-02-18T13:05:49.217Z,99298.07
2019-02-18T13:08:17.277Z,99288.16
2019-02-18T13:10:46.375Z,99250.08
2019-02-18T13:13:14.468Z,99286.49
2019-02-18T13:15:43.556Z,99121.33
2019-02-18T13:18:11.395Z,99282.66
2019-02-18T13:20:41.652Z,99243.15
2019-02-18T13:23:09.622Z,99277.13
2019-02-18T13:25:37.401Z,99238.12
2019-02-18T13:28:08.592Z,99263.30
2019-02-18T13:30:35.455Z,99259.88
2019-02-18T13:33:03.833Z,99237.32
2019-02-18T13:35:31.737Z,99263.58
2019-02-18T13:37:59.464Z,99257.59
2019-02-18T13:40:27.833Z,99079.27
2019-02-18T13:42:55.619Z,99251.33
2019-02-18T13:45:23.498Z,99237.11
2019-02-18T13:47:51.636Z,99254.88
2019-02-18T13:50:21.289Z,99244.51
2019-02-18T13:52:50.845Z,99217.31
2019-02-18T13:55:19.305Z,99248.94
2019-02-18T13:57:47.205Z,99239.91
2019-02-18T14:00:18.529Z,99244.23
2019-02-18T14:02:46.825Z,99248.31
2019-02-18T14:05:15.265Z,99237.61
2019-02-18T14:07:43.198Z,99241.42
2019-02-18T14:10:11.052Z,99240.80
2019-02-18T14:12:40.535Z,99222.69
2019-02-18T14:15:10.172Z,99236.95
2019-02-18T14:17:38.331Z,99239.87
2019-02-18T14:20:10.040Z,99238.22
2019-02-18T14:22:39.128Z,99237.69
2019-02-18T14:25:10.820Z,99221.69
2019-02-18T14:27:39.349Z,99268.01
2019-02-18T14:30:09.316Z,99240.47
2019-02-18T14:32:39.135Z,99236.89
2019-02-18T14:35:07.717Z,99234.95
2019-02-18T14:37:38.945Z,99230.70
2019-02-18T14:40:09.898Z,99231.37
2019-02-18T14:42:39.241Z,99227.68
2019-02-18T14:45:09.246Z,99227.80
2019-02-18T14:47:37.453Z,99220.65
2019-02-18T14:50:07.419Z,99224.34
2019-02-18T14:52:35.892Z,99221.96
2019-02-18T14:55:05.424Z,99222.31
2019-02-18T14:57:37.356Z,99242.20
2019-02-18T15:00:14.644Z,99220.02
2019-02-18T15:02:43.815Z,99215.58
2019-02-18T15:05:21.191Z,99182.77
2019-02-18T15:07:51.074Z,99210.45
2019-02-18T15:10:20.120Z,99212.87
2019-02-18T15:12:51.521Z,98958.98
2019-02-18T15:15:24.347Z,99069.16
2019-02-18T15:17:56.560Z,99201.63
2019-02-18T15:20:24.739Z,99196.15
2019-02-18T15:22:52.840Z,99199.30
2019-02-18T15:25:21.379Z,99192.03
2019-02-18T15:27:49.464Z,99163.93
2019-02-18T15:30:21.815Z,99192.36
2019-02-18T15:32:56.149Z,99189.78
2019-02-18T15:35:27.840Z,99195.61
2019-02-18T15:37:58.073Z,99193.25
2019-02-18T15:40:27.922Z,99193.20
2019-02-18T15:42:58.226Z,99192.14
2019-02-18T15:45:28.535Z,99180.66
2019-02-18T15:48:13.326Z,99172.02
2019-02-18T15:50:46.966Z,99183.70
2019-02-18T15:53:19.632Z,99218.99
2019-02-18T15:55:51.037Z,99123.94
2019-02-18T15:58:27.136Z,99184.69
2019-02-18T16:00:59.360Z,99185.63
2019-02-18T16:03:50.773Z,99181.03
2019-02-18T16:06:24.632Z,99177.41
2019-02-18T16:08:54.815Z,99174.03
2019-02-18T16:11:23.349Z,99168.09
2019-02-18T16:13:52.531Z,99168.23
2019-02-18T16:16:20.709Z,99165.23
2019-02-18T16:18:52.863Z,98976.59
2019-02-18T16:21:21.240Z,99164.34
2019-02-18T16:23:52.944Z,99167.41
2019-02-18T16:26:22.143Z,99172.72
2019-02-18T16:28:50.262Z,99174.94
2019-02-18T16:31:22.246Z,99147.78
2019-02-18T16:33:50.847Z,99180.20
2019-02-18T16:36:20.022Z,99162.63
2019-02-18T16:38:52.783Z,99176.97
2019-02-18T16:41:22.415Z,99172.63
2019-02-18T16:43:52.933Z,99179.58
2019-02-18T16:46:21.599Z,98989.95
2019-02-18T16:48:50.498Z,99185.06
2019-02-18T16:51:19.648Z,99175.69
2019-02-18T16:53:49.668Z,99173.67
2019-02-18T16:56:17.841Z,99175.02
2019-02-18T16:58:46.286Z,99174.66
2019-02-18T17:01:22.251Z,99169.75
2019-02-18T17:03:54.185Z,99172.75
2019-02-18T17:06:22.317Z,99060.22
2019-02-18T17:08:54.035Z,99175.15
2019-02-18T17:11:23.577Z,99176.64
2019-02-18T17:13:52.573Z,99179.58
2019-02-18T17:16:20.749Z,99135.03
2019-02-18T17:18:49.978Z,99188.78
2019-02-18T17:21:18.488Z,99182.66
2019-02-18T17:23:46.953Z,99183.09
2019-02-18T17:26:15.234Z,99178.63
2019-02-18T17:28:46.342Z,98940.42
2019-02-18T17:31:14.660Z,99172.93
2019-02-18T17:33:43.105Z,99169.11
2019-02-18T17:36:10.920Z,98944.77
2019-02-18T17:38:39.417Z,99164.92
2019-02-18T17:41:08.651Z,99169.86
2019-02-18T17:43:36.646Z,99166.20
2019-02-18T17:46:05.122Z,99165.59
2019-02-18T17:48:33.552Z,99161.06
2019-02-18T17:51:01.429Z,99161.79
2019-02-18T17:53:29.550Z,99160.31
2019-02-18T17:55:57.691Z,99121.07
2019-02-18T17:58:26.132Z,99166.39
2019-02-18T18:00:54.622Z,99169.59
2019-02-18T18:03:22.517Z,99163.98
2019-02-18T18:05:50.751Z,99169.78
2019-02-18T18:08:18.541Z,99168.36
2019-02-18T18:10:46.288Z,99168.23
2019-02-18T18:13:14.527Z,99163.23
2019-02-18T18:15:42.441Z,99063.66
2019-02-18T18:18:11.129Z,99151.12
2019-02-18T18:20:40.101Z,99166.48
2019-02-18T18:23:07.841Z,99148.58
2019-02-18T18:25:35.703Z,99148.05
2019-02-18T18:28:03.498Z,99144.44
2019-02-18T18:30:31.673Z,99142.29
2019-02-18T18:33:00.870Z,99134.28
2019-02-18T18:35:29.407Z,99134.83
2019-02-18T18:37:59.602Z,99136.22
2019-02-18T18:40:28.924Z,99137.00
2019-02-18T18:42:59.600Z,99130.67
2019-02-18T18:45:27.561Z,99133.47
2019-02-18T18:47:55.468Z,99119.83
2019-02-18T18:50:23.656Z,99124.23
2019-02-18T18:52:51.429Z,99118.55
2019-02-18T18:55:19.455Z,99115.30
2019-02-18T18:57:47.684Z,99172.30
2019-02-18T19:00:18.521Z,99113.79
2019-02-18T19:02:46.746Z,99121.09
2019-02-18T19:05:14.627Z,99115.63
2019-02-18T19:07:43.574Z,99117.47
2019-02-18T19:10:11.872Z,99118.05
2019-02-18T19:12:39.865Z,99122.53
2019-02-18T19:15:08.966Z,99119.20
2019-02-18T19:17:37.600Z,99118.26
2019-02-18T19:20:06.546Z,99062.86
2019-02-18T19:22:35.074Z,99120.93
2019-02-18T19:25:04.420Z,99115.05
2019-02-18T19:27:32.512Z,99114.84
2019-02-18T19:30:01.088Z,99113.46
2019-02-18T19:32:29.162Z,99115.16
2019-02-18T19:34:57.373Z,99114.02
2019-02-18T19:37:25.260Z,99115.93
2019-02-18T19:39:53.326Z,99077.91
2019-02-18T19:42:22.086Z,99114.77
2019-02-18T19:44:49.947Z,99108.55
2019-02-18T19:47:17.913Z,99116.26
2019-02-18T19:49:46.346Z,99102.41
2019-02-18T19:52:14.910Z,99108.09
2019-02-18T19:54:45.376Z,99102.16
2019-02-18T19:57:14.349Z,99111.13
2019-02-18T19:59:42.591Z,99043.73
2019-02-18T20:02:12.955Z,99081.95
2019-02-18T20:04:41.173Z,99108.39
2019-02-18T20:07:09.767Z,99070.94
2019-02-18T20:09:38.612Z,99114.55
2019-02-18T20:12:06.686Z,99113.70
2019-02-18T20:14:35.520Z,99113.34
2019-02-18T20:17:05.293Z,99104.18
2019-02-18T20:19:33.200Z,99094.22
2019-02-18T20:22:03.390Z,99101.71
2019-02-18T20:24:31.794Z,99105.34
2019-02-18T20:27:00.827Z,99100.93
2019-02-18T20:29:29.451Z,99092.72
2019-02-18T20:31:58.437Z,99089.94
2019-02-18T20:34:27.186Z,99096.76
2019-02-18T20:36:55.414Z,99090.28
2019-02-18T20:39:24.177Z,99097.62
2019-02-18T20:41:55.559Z,99090.53
2019-02-18T20:44:23.410Z,99090.78
2019-02-18T20:46:53.403Z,99093.93
2019-02-18T20:49:22.067Z,99087.63
2019-02-18T20:51:50.367Z,99093.52
2019-02-18T20:54:18.539Z,99097.00
2019-02-18T20:56:46.877Z,99092.47
2019-02-18T20:59:15.520Z,99098.31
2019-02-18T21:01:43.951Z,99092.63
2019-02-18T21:04:12.080Z,99018.02
2019-02-18T21:06:41.399Z,99094.05
2019-02-18T21:09:09.835Z,99096.63
2019-02-18T21:11:38.002Z,99101.78
2019-02-18T21:14:06.693Z,99099.30
2019-02-18T21:16:35.185Z,99045.38
2019-02-18T21:19:08.387Z,99096.70
2019-02-18T21:21:37.803Z,99091.00
2019-02-18T21:24:08.254Z,99097.02
2019-02-18T21:26:36.803Z,99036.81
2019-02-18T21:29:07.794Z,99042.50
2019-02-18T21:31:38.728Z,99100.02
2019-02-18T21:34:09.625Z,99101.77
2019-02-18T21:36:37.690Z,99098.53
2019-02-18T21:39:15.110Z,99096.23
2019-02-18T21:41:52.809Z,99093.46
2019-02-18T21:44:25.417Z,99094.46
2019-02-18T21:46:51.132Z,99094.15
2019-02-18T21:49:19.014Z,99094.76
2019-02-18T21:51:48.865Z,99093.27
2019-02-18T21:54:17.898Z,99082.73
2019-02-18T21:56:46.618Z,99090.33
2019-02-18T21:59:14.874Z,99085.01
2019-02-18T22:01:42.736Z,99091.22
2019-02-18T22:04:15.258Z,99046.23
2019-02-18T22:06:43.697Z,99086.73
2019-02-18T22:09:12.111Z,99085.23
2019-02-18T22:11:40.177Z,99088.14
2019-02-18T22:14:08.988Z,99087.56
2019-02-18T22:16:38.443Z,98926.53
2019-02-18T22:19:07.081Z,99092.75
2019-02-18T22:21:35.541Z,99079.04
2019-02-18T22:24:06.554Z,99087.81
2019-02-18T22:26:34.999Z,99085.43
2019-02-18T22:31:31.630Z,99150.09
2019-02-18T22:33:59.632Z,99083.90
2019-02-18T22:36:29.900Z,99079.30
2019-02-18T22:38:58.964Z,99078.66
2019-02-18T22:41:26.953Z,99032.47
2019-02-18T22:43:55.194Z,99099.47
2019-02-18T22:46:24.865Z,99076.20
2019-02-18T22:48:54.103Z,99036.50
2019-02-18T22:51:22.740Z,99068.19
2019-02-18T22:53:52.346Z,99070.73
2019-02-18T22:56:20.176Z,99075.22
2019-02-18T22:58:51.555Z,99071.51
2019-02-18T23:01:24.283Z,99071.64
2019-02-18T23:03:53.878Z,99080.39
2019-02-18T23:06:22.831Z,99043.89
2019-02-18T23:08:52.721Z,99080.91
2019-02-18T23:11:27.163Z,99080.86
2019-02-18T23:13:56.252Z,98950.01
2019-02-18T23:16:25.140Z,99017.09
2019-02-18T23:18:54.227Z,99061.87
2019-02-18T23:21:22.099Z,99089.41
2019-02-18T23:23:50.896Z,99068.98
2019-02-18T23:26:23.789Z,99069.73
2019-02-18T23:28:53.147Z,99068.94
2019-02-18T23:31:21.552Z,99068.40
2019-02-18T23:33:50.037Z,99068.55
2019-02-18T23:36:18.241Z,99076.53
2019-02-18T23:38:47.330Z,99073.84
2019-02-18T23:41:15.379Z,99038.95
2019-02-18T23:43:44.287Z,99075.98
2019-02-18T23:46:13.601Z,99070.49
2019-02-18T23:48:41.780Z,99074.71
2019-02-18T23:51:11.517Z,99080.73
2019-02-18T23:53:39.500Z,99087.64
2019-02-18T23:56:08.664Z,99055.16
2019-02-18T23:58:37.666Z,99082.19
